首页
METAR-TAF:

METAR-TAF

机场 :

富吉拉, 阿拉伯联合酋长国

纬度: 25-06N, 经度: 056-20E, 海拔: 28米

当前天气观测

该预报发布于1小时和1分钟前的08:00 UTC
风速10节,风向东转东北
温度 33°C
湿度 49%
气压 1014 hPa
能见度10公里或以上
少量云层高于2500英尺

METAR: OMFJ 170800Z 06010KT 9999 FEW025 33/21 Q1014 A2995

时间: 13:01 (09:01 UTC)

预报

该预报发布于4小时和1分钟前的05:00 UTC
预报有效从17日的 06点(UTC)到 18日的 12点(UTC)
风速4节,风向西转西北
能見度: 8000
成为
从 17日的 08点(UTC)到 17日的 10点(UTC)
风速8节,风向
成为
从 17日的 15点(UTC)到 17日的 17点(UTC)
风速4节,风向多变
短暂存在
从 18日的 00点(UTC)到 18日的 04点(UTC)
能見度: 5000
少量云层高于1800英尺
成为
从 18日的 05点(UTC)到 18日的 07点(UTC)
风速8节,风向

TAF: OMFJ 170500Z 1706/1812 30004KT 8000 NSC BECMG 1708/1710 09008KT BECMG 1715/1717 VRB04KT TEMPO 1800/1804 5000 HZ FEW018 BECMG 1805/1807 10008KT

超过4000个机场的气象观测和天气预报(METAR&TAF报告)。

可查询的气象台以黄色和红色小点在地图上表示。

将鼠标移到小点上方,可查看气象台名称。

然后点击查看天气观测和预报。

如需切换地图:点击带黑十字的绿色按钮放大地图;点击带横线的绿色按钮缩小地图;或者点击绿色箭头查看邻近地区的地图。


METAR-TAF: